createdAt,value
2022-08-12T00:00:37.093Z,13.90
2022-08-12T00:03:24.072Z,13.78
2022-08-12T00:06:11.270Z,13.57
2022-08-12T00:08:58.836Z,13.86
2022-08-12T00:11:47.990Z,13.66
2022-08-12T00:14:34.796Z,13.48
2022-08-12T00:17:23.346Z,13.40
2022-08-12T00:20:10.887Z,13.65
2022-08-12T00:22:59.698Z,13.60
2022-08-12T00:26:22.495Z,13.27
2022-08-12T00:29:14.013Z,13.43
2022-08-12T00:32:01.810Z,13.17
2022-08-12T00:34:54.473Z,13.44
2022-08-12T00:37:42.808Z,13.58
2022-08-12T00:40:32.413Z,13.58
2022-08-12T00:43:00.753Z,13.33
2022-08-12T00:45:49.192Z,13.35
2022-08-12T00:48:18.467Z,13.54
2022-08-12T00:50:50.459Z,13.55
2022-08-12T00:53:21.064Z,13.54
2022-08-12T00:55:52.526Z,13.45
2022-08-12T00:58:26.770Z,13.04
2022-08-12T01:01:04.444Z,13.43
2022-08-12T01:03:59.616Z,13.26
2022-08-12T01:06:51.064Z,13.23
2022-08-12T01:09:42.085Z,13.21
2022-08-12T01:12:12.616Z,13.10
2022-08-12T01:14:42.408Z,13.04
2022-08-12T01:17:10.898Z,12.65
2022-08-12T01:19:40.796Z,12.93
2022-08-12T01:22:41.078Z,12.83
2022-08-12T01:25:18.858Z,12.85
2022-08-12T01:27:50.187Z,12.42
2022-08-12T01:30:18.923Z,12.59
2022-08-12T01:32:50.192Z,12.72
2022-08-12T01:35:18.676Z,12.66
2022-08-12T01:38:06.141Z,12.46
2022-08-12T01:40:40.443Z,12.67
2022-08-12T01:43:20.357Z,12.51
2022-08-12T01:46:22.786Z,12.67
2022-08-12T01:49:17.972Z,12.67
2022-08-12T01:52:21.441Z,12.58
2022-08-12T01:54:52.576Z,12.48
2022-08-12T01:57:59.064Z,12.49
2022-08-12T02:00:55.608Z,12.24
2022-08-12T02:04:16.886Z,12.55
2022-08-12T02:07:20.989Z,12.51
2022-08-12T02:10:49.563Z,12.04
2022-08-12T02:13:48.283Z,12.38
2022-08-12T02:16:32.479Z,12.29
2022-08-12T02:19:59.343Z,12.30
2022-08-12T02:22:31.381Z,12.25
2022-08-12T02:25:19.183Z,11.96
2022-08-12T02:27:51.922Z,12.02
2022-08-12T02:30:35.328Z,12.35
2022-08-12T02:33:12.065Z,12.32
2022-08-12T02:35:40.637Z,12.44
2022-08-12T02:38:11.084Z,12.28
2022-08-12T02:40:43.352Z,12.41
2022-08-12T02:43:41.365Z,12.62
2022-08-12T02:46:14.738Z,12.22
2022-08-12T02:48:55.424Z,12.44
2022-08-12T02:51:30.694Z,12.40
2022-08-12T02:54:06.153Z,12.49
2022-08-12T02:56:50.134Z,12.18
2022-08-12T02:59:23.145Z,12.41
2022-08-12T03:02:00.138Z,12.30
2022-08-12T03:04:48.012Z,12.62
2022-08-12T03:07:56.386Z,12.46
2022-08-12T03:10:36.490Z,12.76
2022-08-12T03:13:12.795Z,12.62
2022-08-12T03:15:41.417Z,12.99
2022-08-12T03:18:28.957Z,12.92
2022-08-12T03:20:59.444Z,12.74
2022-08-12T03:23:31.059Z,13.10
2022-08-12T03:26:02.633Z,13.15
2022-08-12T03:28:52.106Z,13.19
2022-08-12T03:31:24.838Z,13.15
2022-08-12T03:34:01.315Z,13.14
2022-08-12T03:36:35.385Z,13.23
2022-08-12T03:39:17.792Z,13.25
2022-08-12T03:42:28.559Z,13.36
2022-08-12T03:45:33.179Z,13.40
2022-08-12T03:48:31.626Z,13.52
2022-08-12T03:51:20.564Z,13.53
2022-08-12T03:54:11.084Z,13.54
2022-08-12T03:56:59.099Z,13.44
2022-08-12T03:59:45.863Z,13.43
2022-08-12T04:02:16.398Z,13.34
2022-08-12T04:04:49.387Z,13.34
2022-08-12T04:07:18.185Z,13.20
2022-08-12T04:09:47.987Z,13.32
2022-08-12T04:12:35.578Z,13.17
2022-08-12T04:15:04.364Z,12.90
2022-08-12T04:17:33.398Z,12.86
2022-08-12T04:20:01.972Z,13.16
2022-08-12T04:22:31.160Z,13.19
2022-08-12T04:25:03.527Z,13.20
2022-08-12T04:27:32.705Z,13.19
2022-08-12T04:30:29.477Z,13.20
2022-08-12T04:32:53.877Z,13.07
2022-08-12T04:35:22.492Z,13.44
2022-08-12T04:38:00.331Z,13.32
2022-08-12T04:40:32.294Z,13.77
2022-08-12T04:43:02.284Z,13.81
2022-08-12T04:45:37.689Z,14.03
2022-08-12T04:48:07.262Z,14.12
2022-08-12T04:50:37.067Z,14.16
2022-08-12T04:53:08.977Z,14.27
2022-08-12T04:55:39.340Z,14.37
2022-08-12T04:58:12.529Z,14.42
2022-08-12T05:00:43.292Z,14.59
2022-08-12T05:03:11.370Z,14.92
2022-08-12T05:05:41.114Z,15.12
2022-08-12T05:08:17.947Z,15.50
2022-08-12T05:10:48.452Z,15.99
2022-08-12T05:13:20.815Z,16.48
2022-08-12T05:16:04.694Z,16.96
2022-08-12T05:18:39.200Z,17.36
2022-08-12T05:21:09.937Z,17.59
2022-08-12T05:23:39.761Z,18.11
2022-08-12T05:26:07.741Z,18.27
2022-08-12T05:28:36.698Z,18.74
2022-08-12T05:31:05.969Z,18.95
2022-08-12T05:33:41.164Z,19.17
2022-08-12T05:36:13.938Z,19.33
2022-08-12T05:38:56.637Z,19.47
2022-08-12T05:41:35.376Z,19.89
2022-08-12T05:44:07.571Z,19.83
2022-08-12T05:46:37.611Z,19.84
2022-08-12T05:49:07.773Z,20.29
2022-08-12T05:51:41.172Z,20.19
2022-08-12T05:54:11.876Z,20.52
2022-08-12T05:56:41.875Z,20.56
2022-08-12T05:59:12.302Z,20.76
2022-08-12T06:02:11.956Z,20.95
2022-08-12T06:04:31.747Z,20.75
2022-08-12T06:07:02.054Z,21.04
2022-08-12T06:09:50.230Z,20.77
2022-08-12T06:12:23.694Z,21.04
2022-08-12T06:14:55.372Z,21.15
2022-08-12T06:17:24.199Z,21.32
2022-08-12T06:20:27.433Z,20.83
2022-08-12T06:22:45.864Z,21.09
2022-08-12T06:25:22.135Z,21.07
2022-08-12T06:28:07.769Z,20.92
2022-08-12T06:30:39.471Z,20.87
2022-08-12T06:33:22.408Z,20.32
2022-08-12T06:35:55.763Z,20.21
2022-08-12T06:38:29.192Z,20.05
2022-08-12T06:41:19.942Z,19.86
2022-08-12T06:44:05.639Z,20.24
2022-08-12T06:46:39.031Z,20.32
2022-08-12T06:49:07.194Z,20.69
2022-08-12T06:51:34.966Z,20.79
2022-08-12T06:54:03.347Z,21.09
2022-08-12T06:59:21.728Z,21.41
2022-08-12T07:01:52.099Z,21.34
2022-08-12T07:04:38.344Z,21.54
2022-08-12T07:07:10.490Z,21.76
2022-08-12T07:10:06.907Z,21.81
2022-08-12T07:12:29.238Z,21.75
2022-08-12T07:14:59.383Z,21.83
2022-08-12T07:17:32.194Z,22.30
2022-08-12T07:20:04.218Z,22.55
2022-08-12T07:22:34.365Z,22.72
2022-08-12T07:25:21.095Z,22.51
2022-08-12T07:27:58.802Z,23.11
2022-08-12T07:30:30.813Z,23.32
2022-08-12T07:33:02.032Z,23.29
2022-08-12T07:35:34.592Z,23.25
2022-08-12T07:38:02.774Z,23.28
2022-08-12T07:40:30.934Z,22.98
2022-08-12T07:42:59.288Z,23.02
2022-08-12T07:45:27.290Z,22.88
2022-08-12T07:47:56.060Z,23.26
2022-08-12T07:50:24.224Z,23.36
2022-08-12T07:52:52.352Z,23.35
2022-08-12T07:55:21.280Z,23.58
2022-08-12T07:58:01.037Z,23.86
2022-08-12T08:00:34.662Z,23.92
2022-08-12T08:03:02.763Z,23.82
2022-08-12T08:05:37.852Z,23.91
2022-08-12T08:08:17.797Z,24.07
2022-08-12T08:10:46.925Z,23.66
2022-08-12T08:13:15.453Z,24.04
2022-08-12T08:16:04.069Z,24.15
2022-08-12T08:18:33.230Z,23.74
2022-08-12T08:21:01.624Z,23.88
2022-08-12T08:23:56.265Z,24.17
2022-08-12T08:26:27.569Z,24.30
2022-08-12T08:28:55.617Z,24.67
2022-08-12T08:31:23.605Z,24.85
2022-08-12T08:34:04.812Z,24.25
2022-08-12T08:36:41.907Z,24.44
2022-08-12T08:39:13.329Z,24.20
2022-08-12T08:42:17.784Z,24.00
2022-08-12T08:44:58.187Z,24.12
2022-08-12T08:47:26.709Z,24.44
2022-08-12T08:50:01.268Z,24.65
2022-08-12T08:52:40.190Z,24.78
2022-08-12T08:55:14.167Z,24.68
2022-08-12T08:57:49.623Z,25.02
2022-08-12T09:00:20.961Z,25.02
2022-08-12T09:02:58.574Z,25.17
2022-08-12T09:05:43.193Z,24.87
2022-08-12T09:08:23.196Z,24.93
2022-08-12T09:11:00.010Z,24.72
2022-08-12T09:13:29.365Z,24.88
2022-08-12T09:16:20.650Z,24.95
2022-08-12T09:18:52.152Z,25.24
2022-08-12T09:21:22.940Z,25.20
2022-08-12T09:23:59.229Z,25.38
2022-08-12T09:26:31.675Z,25.20
2022-08-12T09:29:12.192Z,24.78
2022-08-12T09:32:04.179Z,24.44
2022-08-12T09:34:37.908Z,24.31
2022-08-12T09:37:20.134Z,24.09
2022-08-12T09:40:05.197Z,24.19
2022-08-12T09:43:18.932Z,23.85
2022-08-12T09:46:11.083Z,24.12
2022-08-12T09:48:39.302Z,24.26
2022-08-12T09:51:16.636Z,24.33
2022-08-12T09:54:09.114Z,24.19
2022-08-12T09:56:58.729Z,24.46
2022-08-12T10:00:16.634Z,24.62
2022-08-12T10:02:45.787Z,24.75
2022-08-12T10:05:13.743Z,24.69
2022-08-12T10:07:45.698Z,24.65
2022-08-12T10:10:24.252Z,24.68
2022-08-12T10:13:34.748Z,24.78
2022-08-12T10:16:06.440Z,24.38
2022-08-12T10:18:52.178Z,24.60
2022-08-12T10:21:36.433Z,24.77
2022-08-12T10:24:20.312Z,24.68
2022-08-12T10:27:07.751Z,24.09
2022-08-12T10:30:03.963Z,23.98
2022-08-12T10:32:44.815Z,24.18
2022-08-12T10:35:16.756Z,24.09
2022-08-12T10:38:34.015Z,23.91
2022-08-12T10:40:55.917Z,23.99
2022-08-12T10:43:55.343Z,23.80
2022-08-12T10:46:30.592Z,23.77
2022-08-12T10:49:06.769Z,23.42
2022-08-12T10:52:04.487Z,23.77
2022-08-12T10:54:38.875Z,23.67
2022-08-12T10:57:09.469Z,23.51
2022-08-12T11:00:31.315Z,22.98
2022-08-12T11:04:24.947Z,23.14
2022-08-12T11:07:09.835Z,22.93
2022-08-12T11:08:34.517Z,22.76
2022-08-12T11:11:02.265Z,22.26
2022-08-12T11:13:46.958Z,22.56
2022-08-12T11:16:19.763Z,22.57
2022-08-12T11:18:55.512Z,22.52
2022-08-12T11:21:51.081Z,22.45
2022-08-12T11:24:18.731Z,22.52
2022-08-12T11:27:06.189Z,22.56
2022-08-12T11:30:06.056Z,22.45
2022-08-12T11:32:26.503Z,22.24
2022-08-12T11:34:55.447Z,22.14
2022-08-12T11:37:27.804Z,21.98
2022-08-12T11:42:39.601Z,21.42
2022-08-12T11:45:16.919Z,21.43
2022-08-12T11:47:45.896Z,21.34
2022-08-12T11:50:18.925Z,21.28
2022-08-12T11:52:55.291Z,21.06
2022-08-12T11:55:27.485Z,20.77
2022-08-12T11:58:19.670Z,20.38
2022-08-12T12:03:44.112Z,19.75
2022-08-12T12:06:16.976Z,19.55
2022-08-12T12:08:51.601Z,19.46
2022-08-12T12:11:24.204Z,19.18
2022-08-12T12:14:07.783Z,19.16
2022-08-12T12:16:39.697Z,18.96
2022-08-12T12:19:11.336Z,18.72
2022-08-12T12:21:47.034Z,18.98
2022-08-12T12:24:21.099Z,18.49
2022-08-12T12:27:00.579Z,18.88
2022-08-12T12:30:14.174Z,18.82
2022-08-12T12:32:29.174Z,18.38
2022-08-12T12:35:14.312Z,18.77
2022-08-12T12:38:05.660Z,18.78
2022-08-12T12:40:45.482Z,18.61
2022-08-12T12:43:14.958Z,18.39
2022-08-12T12:45:46.387Z,18.67
2022-08-12T12:48:18.431Z,18.73
2022-08-12T12:51:12.053Z,18.51
2022-08-12T12:54:07.278Z,18.81
2022-08-12T12:56:34.732Z,18.79
2022-08-12T12:59:06.403Z,18.81
2022-08-12T13:01:41.873Z,18.87
2022-08-12T13:04:13.845Z,18.93
2022-08-12T13:06:43.460Z,18.97
2022-08-12T13:09:13.542Z,19.08
2022-08-12T13:11:44.710Z,19.28
2022-08-12T13:14:27.897Z,19.34
2022-08-12T13:17:06.000Z,19.33
2022-08-12T13:19:44.525Z,19.31
2022-08-12T13:22:21.480Z,19.27
2022-08-12T13:24:57.100Z,19.10
2022-08-12T13:27:35.546Z,19.40
2022-08-12T13:30:12.666Z,19.38
2022-08-12T13:32:57.390Z,19.42
2022-08-12T13:36:03.064Z,19.43
2022-08-12T13:38:34.520Z,19.48
2022-08-12T13:41:04.114Z,19.36
2022-08-12T13:43:40.308Z,19.40
2022-08-12T13:46:14.450Z,19.54
2022-08-12T13:48:45.196Z,19.43
2022-08-12T13:51:24.149Z,19.42
2022-08-12T13:53:57.552Z,19.43
2022-08-12T13:56:35.261Z,19.47
2022-08-12T13:59:08.780Z,19.10
2022-08-12T14:01:41.139Z,19.27
2022-08-12T14:04:12.017Z,19.14
2022-08-12T14:06:41.823Z,19.26
2022-08-12T14:09:15.441Z,19.33
2022-08-12T14:11:51.155Z,19.43
2022-08-12T14:14:31.518Z,19.46
2022-08-12T14:17:10.440Z,19.53
2022-08-12T14:20:01.043Z,19.59
2022-08-12T14:22:30.351Z,19.25
2022-08-12T14:25:00.423Z,19.59
2022-08-12T14:28:02.662Z,19.57
2022-08-12T14:30:28.944Z,19.45
2022-08-12T14:33:03.126Z,19.43
2022-08-12T14:35:41.129Z,19.32
2022-08-12T14:38:26.437Z,19.42
2022-08-12T14:41:01.689Z,19.82
2022-08-12T14:43:44.147Z,19.56
2022-08-12T14:46:17.229Z,19.58
2022-08-12T14:48:51.253Z,19.38
2022-08-12T14:52:42.582Z,19.57
2022-08-12T14:57:20.061Z,19.55
2022-08-12T15:00:11.286Z,19.54
2022-08-12T15:02:40.393Z,19.47
2022-08-12T15:05:09.007Z,19.50
2022-08-12T15:07:50.020Z,19.46
2022-08-12T15:10:31.091Z,19.23
2022-08-12T15:13:07.329Z,19.51
2022-08-12T15:15:46.009Z,19.38
2022-08-12T15:18:22.806Z,19.40
2022-08-12T15:21:04.389Z,19.34
2022-08-12T15:23:45.449Z,18.83
2022-08-12T15:26:28.532Z,19.31
2022-08-12T15:28:59.435Z,19.44
2022-08-12T15:31:54.261Z,19.42
2022-08-12T15:34:18.820Z,19.41
2022-08-12T15:36:55.320Z,19.33
2022-08-12T15:39:27.543Z,19.22
2022-08-12T15:42:01.951Z,19.16
2022-08-12T15:44:38.489Z,19.09
2022-08-12T15:47:11.321Z,19.01
2022-08-12T15:50:00.539Z,18.91
2022-08-12T15:52:32.861Z,18.82
2022-08-12T15:55:06.166Z,18.84
2022-08-12T15:57:53.158Z,18.89
2022-08-12T16:00:38.680Z,18.58
2022-08-12T16:03:19.125Z,18.87
2022-08-12T16:06:16.848Z,18.67
2022-08-12T16:08:45.643Z,18.69
2022-08-12T16:11:19.024Z,18.78
2022-08-12T16:13:47.781Z,18.77
2022-08-12T16:16:23.811Z,18.58
2022-08-12T16:19:01.985Z,18.66
2022-08-12T16:21:51.932Z,18.73
2022-08-12T16:24:21.948Z,18.67
2022-08-12T16:26:51.270Z,18.56
2022-08-12T16:29:51.989Z,18.46
2022-08-12T16:32:24.025Z,18.47
2022-08-12T16:34:57.727Z,18.29
2022-08-12T16:37:32.804Z,18.59
2022-08-12T16:40:15.403Z,18.60
2022-08-12T16:42:54.277Z,18.69
2022-08-12T16:46:04.502Z,18.75
2022-08-12T16:48:33.857Z,18.67
2022-08-12T16:51:12.094Z,18.63
2022-08-12T16:53:45.118Z,18.41
2022-08-12T16:56:17.266Z,18.53
2022-08-12T16:58:47.729Z,18.01
2022-08-12T17:01:19.875Z,17.73
2022-08-12T17:04:11.059Z,18.00
2022-08-12T17:06:43.636Z,17.85
2022-08-12T17:09:17.526Z,17.79
2022-08-12T17:11:50.527Z,17.78
2022-08-12T17:14:24.770Z,17.42
2022-08-12T17:16:55.863Z,17.81
2022-08-12T17:20:35.409Z,17.78
2022-08-12T17:22:16.870Z,17.70
2022-08-12T17:24:55.624Z,17.72
2022-08-12T17:27:31.111Z,17.66
2022-08-12T17:30:06.505Z,17.55
2022-08-12T17:32:37.176Z,17.53
2022-08-12T17:35:30.138Z,17.54
2022-08-12T17:38:12.102Z,17.60
2022-08-12T17:40:44.084Z,17.65
2022-08-12T17:43:54.763Z,17.63
2022-08-12T17:46:13.241Z,17.40
2022-08-12T17:48:55.109Z,17.62
2022-08-12T17:51:24.687Z,17.33
2022-08-12T17:54:11.742Z,17.63
2022-08-12T17:56:43.093Z,17.48
2022-08-12T17:59:13.127Z,17.68
2022-08-12T18:01:45.698Z,17.63
2022-08-12T18:04:23.011Z,17.62
2022-08-12T18:07:08.604Z,17.57
2022-08-12T18:09:37.546Z,17.53
2022-08-12T18:12:26.500Z,17.52
2022-08-12T18:15:01.626Z,17.49
2022-08-12T18:17:33.297Z,17.39
2022-08-12T18:20:08.745Z,17.48
2022-08-12T18:22:46.790Z,17.59
2022-08-12T18:26:12.352Z,17.66
2022-08-12T18:28:30.905Z,17.66
2022-08-12T18:31:03.188Z,17.63
2022-08-12T18:33:44.089Z,17.37
2022-08-12T18:36:22.702Z,17.51
2022-08-12T18:38:59.517Z,17.55
2022-08-12T18:41:34.557Z,17.51
2022-08-12T18:44:10.066Z,17.42
2022-08-12T18:46:53.345Z,17.47
2022-08-12T18:49:33.503Z,17.48
2022-08-12T18:52:05.286Z,17.50
2022-08-12T18:54:41.410Z,17.47
2022-08-12T18:57:46.048Z,17.21
2022-08-12T19:00:09.935Z,17.29
2022-08-12T19:02:40.436Z,17.46
2022-08-12T19:05:12.252Z,17.26
2022-08-12T19:08:01.053Z,17.40
2022-08-12T19:10:31.996Z,17.43
2022-08-12T19:13:24.051Z,17.48
2022-08-12T19:15:58.256Z,17.47
2022-08-12T19:18:31.112Z,17.43
2022-08-12T19:21:06.342Z,17.52
2022-08-12T19:23:36.055Z,17.35
2022-08-12T19:26:10.528Z,17.50
2022-08-12T19:28:42.752Z,17.26
2022-08-12T19:31:56.005Z,17.57
2022-08-12T19:35:54.160Z,17.60
2022-08-12T19:38:02.483Z,17.58
2022-08-12T19:40:32.327Z,17.67
2022-08-12T19:43:17.863Z,17.58
2022-08-12T19:45:58.309Z,17.68
2022-08-12T19:48:32.732Z,17.70
2022-08-12T19:51:09.344Z,17.71
2022-08-12T19:53:57.920Z,17.71
2022-08-12T19:56:30.632Z,17.71
2022-08-12T19:59:20.912Z,17.40
2022-08-12T20:02:02.664Z,17.71
2022-08-12T20:04:37.846Z,17.74
2022-08-12T20:07:23.842Z,17.76
2022-08-12T20:09:54.032Z,17.57
2022-08-12T20:12:53.794Z,17.74
2022-08-12T20:15:22.160Z,17.46
2022-08-12T20:17:57.195Z,17.75
2022-08-12T20:20:31.829Z,17.72
2022-08-12T20:23:09.820Z,17.74
2022-08-12T20:25:53.506Z,17.73
2022-08-12T20:28:34.071Z,17.75
2022-08-12T20:31:02.482Z,17.75
2022-08-12T20:33:50.094Z,17.74
2022-08-12T20:36:40.670Z,17.74
2022-08-12T20:39:33.857Z,17.47
2022-08-12T20:42:07.414Z,17.64
2022-08-12T20:44:40.872Z,17.53
2022-08-12T20:47:19.391Z,17.76
2022-08-12T20:49:55.617Z,17.77
2022-08-12T20:52:29.856Z,17.81
2022-08-12T20:54:58.475Z,17.53
2022-08-12T20:57:38.198Z,17.78
2022-08-12T21:00:28.379Z,17.55
2022-08-12T21:03:16.818Z,17.80
2022-08-12T21:06:13.686Z,17.78
2022-08-12T21:08:44.507Z,17.62
2022-08-12T21:11:13.029Z,17.82
2022-08-12T21:13:42.283Z,17.66
2022-08-12T21:16:10.709Z,17.86
2022-08-12T21:18:40.139Z,17.76
2022-08-12T21:21:23.239Z,17.82
2022-08-12T21:23:56.195Z,17.83
2022-08-12T21:26:26.648Z,17.87
2022-08-12T21:29:01.419Z,17.83
2022-08-12T21:32:36.986Z,17.89
2022-08-12T21:34:50.571Z,17.81
2022-08-12T21:37:27.754Z,17.75
2022-08-12T21:39:56.781Z,17.89
2022-08-12T21:42:28.005Z,17.71
2022-08-12T21:45:46.239Z,17.96
2022-08-12T21:47:53.240Z,17.98
2022-08-12T21:50:29.201Z,18.01
2022-08-12T21:52:57.857Z,17.77
2022-08-12T21:55:29.120Z,17.81
2022-08-12T21:58:16.806Z,18.06
2022-08-12T22:00:45.027Z,18.00
2022-08-12T22:04:02.727Z,18.06
2022-08-12T22:06:30.800Z,18.02
2022-08-12T22:09:15.872Z,17.77
2022-08-12T22:11:56.416Z,18.01
2022-08-12T22:14:29.297Z,17.91
2022-08-12T22:17:01.682Z,17.94
2022-08-12T22:19:35.155Z,17.69
2022-08-12T22:22:05.562Z,17.74
2022-08-12T22:24:35.036Z,17.72
2022-08-12T22:27:31.346Z,17.98
2022-08-12T22:30:19.575Z,17.97
2022-08-12T22:32:50.781Z,17.37
2022-08-12T22:35:56.639Z,17.94
2022-08-12T22:38:24.797Z,17.93
2022-08-12T22:41:01.345Z,17.72
2022-08-12T22:43:59.238Z,17.85
2022-08-12T22:46:53.181Z,17.63
2022-08-12T22:49:49.007Z,17.83
2022-08-12T22:52:23.265Z,17.89
2022-08-12T22:55:03.199Z,17.87
2022-08-12T22:57:53.949Z,17.68
2022-08-12T23:00:27.058Z,17.94
2022-08-12T23:03:03.050Z,17.88
2022-08-12T23:05:56.827Z,17.84
2022-08-12T23:08:29.984Z,17.86
2022-08-12T23:11:05.990Z,17.88
2022-08-12T23:13:54.718Z,17.81
2022-08-12T23:16:33.231Z,17.53
2022-08-12T23:19:18.297Z,17.81
2022-08-12T23:22:03.550Z,17.72
2022-08-12T23:24:53.788Z,17.77
2022-08-12T23:27:51.837Z,17.82
2022-08-12T23:30:31.322Z,17.79
2022-08-12T23:33:01.653Z,17.50
2022-08-12T23:35:53.917Z,17.76
2022-08-12T23:38:31.585Z,17.47
2022-08-12T23:41:03.635Z,17.63
2022-08-12T23:43:38.827Z,17.67
2022-08-12T23:46:11.578Z,17.61
2022-08-12T23:48:40.797Z,17.60
2022-08-12T23:51:23.267Z,17.60
2022-08-12T23:54:00.377Z,17.57
2022-08-12T23:56:33.605Z,17.53
2022-08-12T23:59:08.257Z,17.50
